createdAt,value
2022-09-15T00:00:50.305Z,3.72
2022-09-15T00:03:52.661Z,3.60
2022-09-15T00:06:54.910Z,3.30
2022-09-15T00:09:57.281Z,3.37
2022-09-15T00:12:59.760Z,3.30
2022-09-15T00:16:02.590Z,3.87
2022-09-15T00:19:04.976Z,3.42
2022-09-15T00:22:07.148Z,3.50
2022-09-15T00:25:10.205Z,3.70
2022-09-15T00:28:14.202Z,3.08
2022-09-15T00:31:20.230Z,3.50
2022-09-15T00:34:22.520Z,3.42
2022-09-15T00:37:24.941Z,3.08
2022-09-15T00:40:27.502Z,3.05
2022-09-15T00:43:50.458Z,3.60
2022-09-15T00:47:17.801Z,3.65
2022-09-15T00:50:19.068Z,4.30
2022-09-15T00:53:21.429Z,3.70
2022-09-15T00:56:23.758Z,3.30
2022-09-15T00:59:27.967Z,3.30
2022-09-15T01:02:33.113Z,3.70
2022-09-15T01:05:40.357Z,3.33
2022-09-15T01:09:03.500Z,4.05
2022-09-15T01:12:06.312Z,4.20
2022-09-15T01:15:08.996Z,4.00
2022-09-15T01:18:31.384Z,3.87
2022-09-15T01:22:02.069Z,4.03
2022-09-15T01:25:27.800Z,3.60
2022-09-15T01:28:46.266Z,3.62
2022-09-15T01:32:16.697Z,3.40
2022-09-15T01:35:27.721Z,3.20
2022-09-15T01:39:03.173Z,3.17
2022-09-15T01:42:07.572Z,3.20
2022-09-15T01:45:14.353Z,3.85
2022-09-15T01:48:22.614Z,3.30
2022-09-15T01:51:25.868Z,3.40
2022-09-15T01:54:35.574Z,4.18
2022-09-15T01:57:37.773Z,3.40
2022-09-15T02:00:45.009Z,3.20
2022-09-15T02:03:56.684Z,3.10
2022-09-15T02:07:06.441Z,3.37
2022-09-15T02:10:13.472Z,3.15
2022-09-15T02:13:32.371Z,3.58
2022-09-15T02:16:35.406Z,3.45
2022-09-15T02:19:41.743Z,3.00
2022-09-15T02:22:48.282Z,2.90
2022-09-15T02:25:54.154Z,2.60
2022-09-15T02:28:58.161Z,3.78
2022-09-15T02:32:06.772Z,3.50
2022-09-15T02:35:10.138Z,2.80
2022-09-15T02:38:12.897Z,3.20
2022-09-15T02:41:15.050Z,2.78
2022-09-15T02:44:17.254Z,2.60
2022-09-15T02:47:19.768Z,2.83
2022-09-15T02:50:21.948Z,3.58
2022-09-15T02:53:24.196Z,2.58
2022-09-15T02:56:26.499Z,2.87
2022-09-15T02:59:48.616Z,3.17
2022-09-15T03:02:52.362Z,2.95
2022-09-15T03:05:54.666Z,2.83
2022-09-15T03:09:01.255Z,2.47
2022-09-15T03:12:03.772Z,2.50
2022-09-15T03:15:07.971Z,2.50
2022-09-15T03:18:10.149Z,2.65
2022-09-15T03:21:13.781Z,2.40
2022-09-15T03:24:16.193Z,2.58
2022-09-15T03:27:18.352Z,2.65
2022-09-15T03:30:20.629Z,2.45
2022-09-15T03:33:24.417Z,2.85
2022-09-15T03:36:26.643Z,2.30
2022-09-15T03:39:28.835Z,2.30
2022-09-15T03:42:31.141Z,2.10
2022-09-15T03:45:33.352Z,2.17
2022-09-15T03:48:36.354Z,2.45
2022-09-15T03:51:38.533Z,2.50
2022-09-15T03:54:40.721Z,2.17
2022-09-15T03:57:42.881Z,1.90
2022-09-15T04:00:46.751Z,1.90
2022-09-15T04:03:51.304Z,1.90
2022-09-15T04:06:53.796Z,2.10
2022-09-15T04:09:55.969Z,1.90
2022-09-15T04:12:58.145Z,2.15
2022-09-15T04:16:01.912Z,1.83
2022-09-15T04:19:04.617Z,1.98
2022-09-15T04:22:07.027Z,2.97
2022-09-15T04:25:09.431Z,2.78
2022-09-15T04:28:11.584Z,6.87
2022-09-15T04:31:15.815Z,3.97
2022-09-15T04:34:18.440Z,1.87
2022-09-15T04:37:20.616Z,2.62
2022-09-15T04:40:23.012Z,2.40
2022-09-15T04:43:26.411Z,2.67
2022-09-15T04:46:28.684Z,2.62
2022-09-15T04:49:31.763Z,2.80
2022-09-15T04:52:33.919Z,2.97
2022-09-15T04:55:36.518Z,1.70
2022-09-15T04:58:40.723Z,2.10
2022-09-15T05:01:43.684Z,2.40
2022-09-15T05:04:48.443Z,1.40
2022-09-15T05:07:50.741Z,1.23
2022-09-15T05:10:53.344Z,1.20
2022-09-15T05:13:55.526Z,1.77
2022-09-15T05:16:57.692Z,1.70
2022-09-15T05:20:00.711Z,1.70
2022-09-15T05:23:03.496Z,1.10
2022-09-15T05:26:07.956Z,1.65
2022-09-15T05:29:10.126Z,1.33
2022-09-15T05:32:12.478Z,1.30
2022-09-15T05:35:14.627Z,1.77
2022-09-15T05:38:16.967Z,1.60
2022-09-15T05:41:19.551Z,1.55
2022-09-15T05:44:21.699Z,1.58
2022-09-15T05:47:23.880Z,1.35
2022-09-15T05:50:26.059Z,1.50
2022-09-15T05:53:28.533Z,1.45
2022-09-15T05:56:31.280Z,1.70
2022-09-15T05:59:36.060Z,1.55
2022-09-15T06:02:38.311Z,1.73
2022-09-15T06:05:40.536Z,1.90
2022-09-15T06:08:52.803Z,1.55
2022-09-15T06:11:57.703Z,1.75
2022-09-15T06:14:59.926Z,1.90
2022-09-15T06:18:02.790Z,2.33
2022-09-15T06:21:16.899Z,1.70
2022-09-15T06:24:19.139Z,1.95
2022-09-15T06:27:21.409Z,1.73
2022-09-15T06:30:23.602Z,2.83
2022-09-15T06:33:27.104Z,2.25
2022-09-15T06:36:30.399Z,1.40
2022-09-15T06:39:33.094Z,1.87
2022-09-15T06:42:35.240Z,2.62
2022-09-15T06:45:37.428Z,2.20
2022-09-15T06:48:40.804Z,1.70
2022-09-15T06:51:43.030Z,2.78
2022-09-15T06:54:45.264Z,1.98
2022-09-15T06:57:47.407Z,2.37
2022-09-15T07:00:49.728Z,2.67
2022-09-15T07:03:52.585Z,1.60
2022-09-15T07:06:54.908Z,2.42
2022-09-15T07:09:57.106Z,1.75
2022-09-15T07:13:01.253Z,1.50
2022-09-15T07:16:05.174Z,1.98
2022-09-15T07:19:07.505Z,1.98
2022-09-15T07:22:11.976Z,1.52
2022-09-15T07:25:14.280Z,1.60
2022-09-15T07:28:16.950Z,1.50
2022-09-15T07:31:21.641Z,2.70
2022-09-15T07:34:23.832Z,1.45
2022-09-15T07:37:26.000Z,1.67
2022-09-15T07:40:29.080Z,1.98
2022-09-15T07:43:31.503Z,1.12
2022-09-15T07:46:34.146Z,1.58
2022-09-15T07:49:36.310Z,1.60
2022-09-15T07:52:38.496Z,1.12
2022-09-15T07:55:40.724Z,1.77
2022-09-15T07:58:42.950Z,1.00
2022-09-15T08:01:45.185Z,1.12
2022-09-15T08:04:47.430Z,1.37
2022-09-15T08:07:50.444Z,1.00
2022-09-15T08:10:52.952Z,1.70
2022-09-15T08:13:55.146Z,1.20
2022-09-15T08:17:01.016Z,1.10
2022-09-15T08:20:04.247Z,1.10
2022-09-15T08:23:06.437Z,0.90
2022-09-15T08:26:13.791Z,1.40
2022-09-15T08:29:17.934Z,1.00
2022-09-15T08:32:20.144Z,1.05
2022-09-15T08:35:22.315Z,1.00
2022-09-15T08:38:24.629Z,1.30
2022-09-15T08:41:33.095Z,0.93
2022-09-15T08:45:17.930Z,1.17
2022-09-15T08:48:24.820Z,1.40
2022-09-15T08:51:34.145Z,1.00
2022-09-15T08:54:36.399Z,1.08
2022-09-15T08:57:38.672Z,1.30
2022-09-15T09:00:41.716Z,1.95
2022-09-15T09:03:48.746Z,0.90
2022-09-15T09:06:56.913Z,0.82
2022-09-15T09:10:14.563Z,0.98
2022-09-15T09:13:35.281Z,0.70
2022-09-15T09:17:03.711Z,0.68
2022-09-15T09:20:29.578Z,0.60
2022-09-15T09:23:34.328Z,0.70
2022-09-15T09:26:36.687Z,0.77
2022-09-15T09:29:50.590Z,0.68
2022-09-15T09:33:07.992Z,0.80
2022-09-15T09:36:11.961Z,1.23
2022-09-15T09:39:15.348Z,0.57
2022-09-15T09:42:18.808Z,0.90
2022-09-15T09:45:21.092Z,0.88
2022-09-15T09:48:25.239Z,0.70
2022-09-15T09:51:49.093Z,0.50
2022-09-15T09:55:03.938Z,0.68
2022-09-15T09:58:13.523Z,0.60
2022-09-15T10:01:17.689Z,0.70
2022-09-15T10:04:21.092Z,0.70
2022-09-15T10:07:26.194Z,0.70
2022-09-15T10:10:32.402Z,0.60
2022-09-15T10:13:35.939Z,0.70
2022-09-15T10:16:38.196Z,0.65
2022-09-15T10:19:46.402Z,0.70
2022-09-15T10:22:48.701Z,0.62
2022-09-15T10:26:00.308Z,0.85
2022-09-15T10:29:16.818Z,0.55
2022-09-15T10:32:26.262Z,1.15
2022-09-15T10:35:33.028Z,0.60
2022-09-15T10:38:44.503Z,0.50
2022-09-15T10:42:02.144Z,0.70
2022-09-15T10:45:04.271Z,1.27
2022-09-15T10:48:15.489Z,0.60
2022-09-15T10:51:25.546Z,0.60
2022-09-15T10:55:04.876Z,0.68
2022-09-15T10:58:23.583Z,0.85
2022-09-15T11:01:28.640Z,0.60
2022-09-15T11:04:44.495Z,0.75
2022-09-15T11:07:54.292Z,0.80
2022-09-15T11:11:16.645Z,0.98
2022-09-15T11:14:42.056Z,0.70
2022-09-15T11:18:15.314Z,0.62
2022-09-15T11:21:25.588Z,0.80
2022-09-15T11:24:54.020Z,0.60
2022-09-15T11:28:04.631Z,0.73
2022-09-15T11:31:17.226Z,1.00
2022-09-15T11:34:41.432Z,0.75
2022-09-15T11:37:46.193Z,1.73
2022-09-15T11:40:53.133Z,0.65
2022-09-15T11:44:17.241Z,1.02
2022-09-15T11:47:36.746Z,0.70
2022-09-15T11:50:41.673Z,0.80
2022-09-15T11:54:05.985Z,0.88
2022-09-15T11:57:18.192Z,0.70
2022-09-15T12:00:20.943Z,0.82
2022-09-15T12:03:25.579Z,1.40
2022-09-15T12:07:02.193Z,1.02
2022-09-15T12:10:18.085Z,1.62
2022-09-15T12:13:22.741Z,1.35
2022-09-15T12:16:25.458Z,1.58
2022-09-15T12:19:33.930Z,1.30
2022-09-15T12:23:00.094Z,1.25
2022-09-15T12:26:28.932Z,1.90
2022-09-15T12:29:41.176Z,1.10
2022-09-15T12:32:44.547Z,1.27
2022-09-15T12:35:46.986Z,1.58
2022-09-15T12:38:49.500Z,1.33
2022-09-15T12:42:00.767Z,1.98
2022-09-15T12:45:02.967Z,1.60
2022-09-15T12:48:07.642Z,1.40
2022-09-15T12:51:10.942Z,1.50
2022-09-15T12:54:19.481Z,1.67
2022-09-15T12:57:33.181Z,1.52
2022-09-15T13:00:37.977Z,1.90
2022-09-15T13:03:41.985Z,1.60
2022-09-15T13:07:16.174Z,1.90
2022-09-15T13:10:30.852Z,2.28
2022-09-15T13:13:44.602Z,1.80
2022-09-15T13:16:52.763Z,1.95
2022-09-15T13:19:59.880Z,1.67
2022-09-15T13:23:03.754Z,1.40
2022-09-15T13:26:07.231Z,1.23
2022-09-15T13:29:14.363Z,1.50
2022-09-15T13:32:32.615Z,1.75
2022-09-15T13:35:59.354Z,0.93
2022-09-15T13:39:04.369Z,1.33
2022-09-15T13:42:21.997Z,1.20
2022-09-15T13:45:49.540Z,1.00
2022-09-15T13:49:10.483Z,1.30
2022-09-15T13:52:18.555Z,2.25
2022-09-15T13:55:25.385Z,2.10
2022-09-15T14:01:50.253Z,2.55
2022-09-15T14:04:52.508Z,2.17
2022-09-15T14:08:01.757Z,1.50
2022-09-15T14:11:10.107Z,1.58
2022-09-15T14:14:30.095Z,1.50
2022-09-15T14:17:34.211Z,2.12
2022-09-15T14:20:36.457Z,2.00
2022-09-15T14:23:46.091Z,1.60
2022-09-15T14:26:50.645Z,1.60
2022-09-15T14:29:55.397Z,1.60
2022-09-15T14:33:02.240Z,1.80
2022-09-15T14:36:13.482Z,1.70
2022-09-15T14:39:20.397Z,1.90
2022-09-15T14:42:30.685Z,1.70
2022-09-15T14:49:12.491Z,1.70
2022-09-15T14:52:27.283Z,2.12
2022-09-15T14:55:52.280Z,3.28
2022-09-15T14:58:56.776Z,3.00
2022-09-15T15:02:27.627Z,2.20
2022-09-15T15:05:34.293Z,3.55
2022-09-15T15:08:43.086Z,1.75
2022-09-15T15:11:45.650Z,1.65
2022-09-15T15:14:48.012Z,2.30
2022-09-15T15:17:54.607Z,1.85
2022-09-15T15:20:57.354Z,1.45
2022-09-15T15:23:59.597Z,1.75
2022-09-15T15:27:33.744Z,1.50
2022-09-15T15:30:44.747Z,1.67
2022-09-15T15:33:57.211Z,1.73
2022-09-15T15:37:04.017Z,2.22
2022-09-15T15:40:15.018Z,2.00
2022-09-15T15:43:23.839Z,2.92
2022-09-15T15:46:45.829Z,2.10
2022-09-15T15:50:11.803Z,2.22
2022-09-15T15:53:10.287Z,2.17
2022-09-15T15:56:13.002Z,1.87
2022-09-15T15:59:16.646Z,2.55
2022-09-15T16:02:19.002Z,2.37
2022-09-15T16:05:22.314Z,1.87
2022-09-15T16:08:33.064Z,1.48
2022-09-15T16:11:35.258Z,1.62
2022-09-15T16:14:37.477Z,1.70
2022-09-15T16:17:44.348Z,2.15
2022-09-15T16:20:49.039Z,1.55
2022-09-15T16:23:51.227Z,1.85
2022-09-15T16:26:53.984Z,1.75
2022-09-15T16:29:56.228Z,1.75
2022-09-15T16:32:58.968Z,2.00
2022-09-15T16:36:07.061Z,1.92
2022-09-15T16:39:09.704Z,2.22
2022-09-15T16:42:12.017Z,2.20
2022-09-15T16:45:25.314Z,2.30
2022-09-15T16:48:27.514Z,2.28
2022-09-15T16:51:31.585Z,2.30
2022-09-15T16:54:34.107Z,2.87
2022-09-15T16:57:36.380Z,2.25
2022-09-15T17:00:39.658Z,2.90
2022-09-15T17:03:43.350Z,2.67
2022-09-15T17:06:46.278Z,2.87
2022-09-15T17:09:49.870Z,4.25
2022-09-15T17:12:52.536Z,3.53
2022-09-15T17:15:55.251Z,3.08
2022-09-15T17:18:57.518Z,3.03
2022-09-15T17:21:59.705Z,2.70
2022-09-15T17:25:01.824Z,3.45
2022-09-15T17:28:04.105Z,3.60
2022-09-15T17:31:14.127Z,2.85
2022-09-15T17:34:16.405Z,3.45
2022-09-15T17:37:18.592Z,3.50
2022-09-15T17:40:21.541Z,2.90
2022-09-15T17:43:25.793Z,3.55
2022-09-15T17:46:28.017Z,3.15
2022-09-15T17:49:30.305Z,3.40
2022-09-15T17:52:32.525Z,3.72
2022-09-15T17:55:34.692Z,3.25
2022-09-15T17:58:36.967Z,3.08
2022-09-15T18:01:39.512Z,3.42
2022-09-15T18:04:41.742Z,3.53
2022-09-15T18:07:44.087Z,4.20
2022-09-15T18:10:46.757Z,3.12
2022-09-15T18:13:48.992Z,2.97
2022-09-15T18:16:51.233Z,3.17
2022-09-15T18:19:53.605Z,2.95
2022-09-15T18:22:56.876Z,3.70
2022-09-15T18:25:59.056Z,3.50
2022-09-15T18:29:02.150Z,3.45
2022-09-15T18:32:04.821Z,3.10
2022-09-15T18:35:09.148Z,3.40
2022-09-15T18:38:12.066Z,2.97
2022-09-15T18:41:14.334Z,3.28
2022-09-15T18:44:16.554Z,3.25
2022-09-15T18:47:18.750Z,3.25
2022-09-15T18:50:23.323Z,3.28
2022-09-15T18:53:25.597Z,3.33
2022-09-15T18:56:28.097Z,4.10
2022-09-15T18:59:30.315Z,3.87
2022-09-15T19:02:32.827Z,3.53
2022-09-15T19:05:35.378Z,4.28
2022-09-15T19:08:37.886Z,3.55
2022-09-15T19:11:40.104Z,4.25
2022-09-15T19:14:46.036Z,4.05
2022-09-15T19:17:48.960Z,4.62
2022-09-15T19:20:51.147Z,4.70
2022-09-15T19:23:57.279Z,4.50
2022-09-15T19:27:05.023Z,4.37
2022-09-15T19:30:10.217Z,4.12
2022-09-15T19:33:12.676Z,4.22
2022-09-15T19:36:28.099Z,4.60
2022-09-15T19:39:31.141Z,4.53
2022-09-15T19:42:33.341Z,4.90
2022-09-15T19:45:35.570Z,4.40
2022-09-15T19:48:40.872Z,4.78
2022-09-15T19:51:46.135Z,5.00
2022-09-15T19:54:48.346Z,5.20
2022-09-15T19:57:50.510Z,5.40
2022-09-15T20:00:57.048Z,4.35
2022-09-15T20:04:01.984Z,3.85
2022-09-15T20:07:04.351Z,3.83
2022-09-15T20:10:06.788Z,3.45
2022-09-15T20:13:08.936Z,2.58
2022-09-15T20:16:16.115Z,3.00
2022-09-15T20:19:18.550Z,2.67
2022-09-15T20:22:20.846Z,3.15
2022-09-15T20:25:26.162Z,2.53
2022-09-15T20:28:29.624Z,2.97
2022-09-15T20:31:34.668Z,2.42
2022-09-15T20:34:36.857Z,2.97
2022-09-15T20:37:39.339Z,2.40
2022-09-15T20:40:41.557Z,3.00
2022-09-15T20:43:44.190Z,2.75
2022-09-15T20:46:48.487Z,2.25
2022-09-15T20:49:50.652Z,2.05
2022-09-15T20:52:53.250Z,2.22
2022-09-15T20:55:55.781Z,2.25
2022-09-15T20:58:59.914Z,1.95
2022-09-15T21:02:04.279Z,1.65
2022-09-15T21:05:06.671Z,2.17
2022-09-15T21:08:11.890Z,2.00
2022-09-15T21:11:14.919Z,1.60
2022-09-15T21:14:17.122Z,2.00
2022-09-15T21:17:19.538Z,1.75
2022-09-15T21:20:21.703Z,1.80
2022-09-15T21:23:25.047Z,1.95
2022-09-15T21:26:32.928Z,1.90
2022-09-15T21:29:35.848Z,1.98
2022-09-15T21:32:38.834Z,1.83
2022-09-15T21:35:42.011Z,2.10
2022-09-15T21:38:44.716Z,2.15
2022-09-15T21:41:46.980Z,2.05
2022-09-15T21:44:49.157Z,2.10
2022-09-15T21:47:51.309Z,1.98
2022-09-15T21:50:54.225Z,1.90
2022-09-15T21:53:58.407Z,2.22
2022-09-15T21:57:00.654Z,2.42
2022-09-15T22:00:04.234Z,2.22
2022-09-15T22:03:06.907Z,2.22
2022-09-15T22:06:12.907Z,1.90
2022-09-15T22:09:16.811Z,2.62
2022-09-15T22:12:18.918Z,2.62
2022-09-15T22:15:21.083Z,2.40
2022-09-15T22:18:23.294Z,2.42
2022-09-15T22:21:27.340Z,2.33
2022-09-15T22:24:29.961Z,2.95
2022-09-15T22:27:32.096Z,2.40
2022-09-15T22:30:34.233Z,2.60
2022-09-15T22:33:37.031Z,2.40
2022-09-15T22:36:39.183Z,2.45
2022-09-15T22:39:58.454Z,2.67
2022-09-15T22:43:01.230Z,2.45
2022-09-15T22:46:03.749Z,2.70
2022-09-15T22:49:06.020Z,2.50
2022-09-15T22:52:08.757Z,2.55
2022-09-15T22:55:10.910Z,2.42
2022-09-15T22:58:13.032Z,2.47
2022-09-15T23:01:23.997Z,2.70
2022-09-15T23:04:26.201Z,3.05
2022-09-15T23:07:28.447Z,2.58
2022-09-15T23:10:31.086Z,2.50
2022-09-15T23:13:34.094Z,2.42
2022-09-15T23:16:36.418Z,2.70
2022-09-15T23:19:38.595Z,2.75
2022-09-15T23:22:40.784Z,2.37
2022-09-15T23:25:43.468Z,2.65
2022-09-15T23:28:45.688Z,2.30
2022-09-15T23:31:47.917Z,2.30
2022-09-15T23:34:50.132Z,2.65
2022-09-15T23:37:52.490Z,2.03
2022-09-15T23:40:54.630Z,2.50
2022-09-15T23:43:59.598Z,2.50
2022-09-15T23:47:01.848Z,2.55
2022-09-15T23:50:04.392Z,2.10
2022-09-15T23:53:06.681Z,2.12
2022-09-15T23:56:08.871Z,2.40
2022-09-15T23:59:11.014Z,2.20
